sensor_id;sensor_type;location;lat;lon;timestamp;pressure;altitude;pressure_sealevel;temperature;humidity
71465;BME280;59274;49.874;9.154;2024-02-15T00:02:04;100776.28;;;9.57;100.00
71465;BME280;59274;49.874;9.154;2024-02-15T00:04:30;100777.47;;;9.60;100.00
71465;BME280;59274;49.874;9.154;2024-02-15T00:06:57;100767.53;;;9.64;100.00
71465;BME280;59274;49.874;9.154;2024-02-15T00:09:22;100769.16;;;9.68;100.00
71465;BME280;59274;49.874;9.154;2024-02-15T00:11:48;100769.66;;;9.74;100.00
71465;BME280;59274;49.874;9.154;2024-02-15T00:14:13;100759.03;;;9.65;100.00
71465;BME280;59274;49.874;9.154;2024-02-15T00:16:39;100763.75;;;9.68;100.00
71465;BME280;59274;49.874;9.154;2024-02-15T00:19:05;100759.19;;;9.72;100.00
71465;BME280;59274;49.874;9.154;2024-02-15T00:21:32;100763.63;;;9.80;100.00
71465;BME280;59274;49.874;9.154;2024-02-15T00:23:57;100759.53;;;9.87;100.00
71465;BME280;59274;49.874;9.154;2024-02-15T00:26:25;100743.94;;;9.83;100.00
71465;BME280;59274;49.874;9.154;2024-02-15T00:28:50;100746.31;;;9.85;100.00
71465;BME280;59274;49.874;9.154;2024-02-15T00:31:16;100749.81;;;9.86;100.00
71465;BME280;59274;49.874;9.154;2024-02-15T00:33:42;100745.94;;;9.87;100.00
71465;BME280;59274;49.874;9.154;2024-02-15T00:36:08;100744.63;;;9.80;100.00
71465;BME280;59274;49.874;9.154;2024-02-15T00:38:33;100746.94;;;9.78;100.00
71465;BME280;59274;49.874;9.154;2024-02-15T00:40:59;100749.13;;;9.73;100.00
71465;BME280;59274;49.874;9.154;2024-02-15T00:43:26;100753.00;;;9.72;100.00
71465;BME280;59274;49.874;9.154;2024-02-15T00:45:52;100754.81;;;9.68;100.00
71465;BME280;59274;49.874;9.154;2024-02-15T00:48:18;100748.25;;;9.69;100.00
71465;BME280;59274;49.874;9.154;2024-02-15T00:50:43;100758.16;;;9.61;100.00
71465;BME280;59274;49.874;9.154;2024-02-15T00:53:09;100741.44;;;9.59;100.00
71465;BME280;59274;49.874;9.154;2024-02-15T00:55:34;100744.25;;;9.63;100.00
71465;BME280;59274;49.874;9.154;2024-02-15T00:58:00;100741.97;;;9.65;100.00
71465;BME280;59274;49.874;9.154;2024-02-15T01:00:25;100742.56;;;9.74;100.00
71465;BME280;59274;49.874;9.154;2024-02-15T01:02:51;100748.34;;;9.72;100.00
71465;BME280;59274;49.874;9.154;2024-02-15T01:05:18;100739.34;;;9.53;100.00
71465;BME280;59274;49.874;9.154;2024-02-15T01:07:48;100746.19;;;9.47;100.00
71465;BME280;59274;49.874;9.154;2024-02-15T01:10:14;100742.78;;;9.50;100.00
71465;BME280;59274;49.874;9.154;2024-02-15T01:12:40;100748.56;;;9.48;100.00
71465;BME280;59274;49.874;9.154;2024-02-15T01:15:06;100748.91;;;9.47;100.00
71465;BME280;59274;49.874;9.154;2024-02-15T01:17:32;100752.34;;;9.43;100.00
71465;BME280;59274;49.874;9.154;2024-02-15T01:19:57;100748.22;;;9.50;100.00
71465;BME280;59274;49.874;9.154;2024-02-15T01:22:23;100745.41;;;9.46;100.00
71465;BME280;59274;49.874;9.154;2024-02-15T01:24:53;100745.94;;;9.36;100.00
71465;BME280;59274;49.874;9.154;2024-02-15T01:27:18;100743.94;;;9.33;100.00
71465;BME280;59274;49.874;9.154;2024-02-15T01:29:44;100751.19;;;9.29;100.00
71465;BME280;59274;49.874;9.154;2024-02-15T01:32:12;100752.78;;;9.30;100.00
71465;BME280;59274;49.874;9.154;2024-02-15T01:34:38;100748.56;;;9.32;100.00
71465;BME280;59274;49.874;9.154;2024-02-15T01:37:03;100756.63;;;9.29;100.00
71465;BME280;59274;49.874;9.154;2024-02-15T01:39:29;100744.28;;;9.31;100.00
71465;BME280;59274;49.874;9.154;2024-02-15T01:41:55;100748.56;;;9.32;100.00
71465;BME280;59274;49.874;9.154;2024-02-15T01:44:22;100747.59;;;9.25;100.00
71465;BME280;59274;49.874;9.154;2024-02-15T01:46:50;100752.16;;;9.36;100.00
71465;BME280;59274;49.874;9.154;2024-02-15T01:49:17;100751.53;;;9.43;100.00
71465;BME280;59274;49.874;9.154;2024-02-15T01:51:44;100748.72;;;9.39;100.00
71465;BME280;59274;49.874;9.154;2024-02-15T01:54:13;100751.38;;;9.36;100.00
71465;BME280;59274;49.874;9.154;2024-02-15T01:56:43;100749.28;;;9.29;100.00
71465;BME280;59274;49.874;9.154;2024-02-15T01:59:10;100746.13;;;9.27;100.00
71465;BME280;59274;49.874;9.154;2024-02-15T02:01:36;100746.91;;;9.43;100.00
71465;BME280;59274;49.874;9.154;2024-02-15T02:04:03;100745.22;;;9.39;100.00
71465;BME280;59274;49.874;9.154;2024-02-15T02:06:30;100751.78;;;9.38;100.00
71465;BME280;59274;49.874;9.154;2024-02-15T02:08:56;100749.34;;;9.33;100.00
71465;BME280;59274;49.874;9.154;2024-02-15T02:11:23;100744.88;;;9.25;100.00
71465;BME280;59274;49.874;9.154;2024-02-15T02:13:48;100739.22;;;9.30;100.00
71465;BME280;59274;49.874;9.154;2024-02-15T02:16:31;100742.47;;;9.20;100.00
71465;BME280;59274;49.874;9.154;2024-02-15T02:19:01;100737.13;;;9.23;100.00
71465;BME280;59274;49.874;9.154;2024-02-15T02:21:27;100738.50;;;9.33;100.00
71465;BME280;59274;49.874;9.154;2024-02-15T02:23:56;100729.53;;;9.29;100.00
71465;BME280;59274;49.874;9.154;2024-02-15T02:26:22;100740.09;;;9.34;100.00
71465;BME280;59274;49.874;9.154;2024-02-15T02:28:50;100743.31;;;9.24;100.00
71465;BME280;59274;49.874;9.154;2024-02-15T02:31:16;100742.47;;;9.20;100.00
71465;BME280;59274;49.874;9.154;2024-02-15T02:33:43;100734.16;;;9.28;100.00
71465;BME280;59274;49.874;9.154;2024-02-15T02:36:12;100734.94;;;9.29;100.00
71465;BME280;59274;49.874;9.154;2024-02-15T02:38:38;100734.44;;;9.23;100.00
71465;BME280;59274;49.874;9.154;2024-02-15T02:41:04;100729.00;;;9.23;100.00
71465;BME280;59274;49.874;9.154;2024-02-15T02:43:29;100720.44;;;9.21;100.00
71465;BME280;59274;49.874;9.154;2024-02-15T02:45:55;100723.84;;;9.18;100.00
71465;BME280;59274;49.874;9.154;2024-02-15T02:48:20;100723.66;;;9.27;100.00
71465;BME280;59274;49.874;9.154;2024-02-15T02:50:47;100724.97;;;9.17;100.00
71465;BME280;59274;49.874;9.154;2024-02-15T02:53:13;100723.22;;;9.25;100.00
71465;BME280;59274;49.874;9.154;2024-02-15T02:55:40;100730.75;;;9.16;100.00
71465;BME280;59274;49.874;9.154;2024-02-15T02:58:06;100734.44;;;9.23;100.00
71465;BME280;59274;49.874;9.154;2024-02-15T03:00:33;100731.34;;;9.25;100.00
71465;BME280;59274;49.874;9.154;2024-02-15T03:02:58;100731.78;;;9.27;100.00
71465;BME280;59274;49.874;9.154;2024-02-15T03:05:25;100729.19;;;9.30;100.00
71465;BME280;59274;49.874;9.154;2024-02-15T03:07:51;100725.75;;;9.33;100.00
71465;BME280;59274;49.874;9.154;2024-02-15T03:10:17;100726.41;;;9.46;100.00
71465;BME280;59274;49.874;9.154;2024-02-15T03:12:44;100715.16;;;9.44;100.00
71465;BME280;59274;49.874;9.154;2024-02-15T03:15:12;100714.88;;;9.49;100.00
71465;BME280;59274;49.874;9.154;2024-02-15T03:17:40;100708.50;;;9.41;100.00
71465;BME280;59274;49.874;9.154;2024-02-15T03:20:06;100712.47;;;9.44;100.00
71465;BME280;59274;49.874;9.154;2024-02-15T03:22:55;100711.22;;;9.41;100.00
71465;BME280;59274;49.874;9.154;2024-02-15T03:25:22;100707.88;;;9.48;100.00
71465;BME280;59274;49.874;9.154;2024-02-15T03:27:57;100706.75;;;9.49;100.00
71465;BME280;59274;49.874;9.154;2024-02-15T03:30:24;100709.03;;;9.47;100.00
71465;BME280;59274;49.874;9.154;2024-02-15T03:32:50;100709.66;;;9.40;100.00
71465;BME280;59274;49.874;9.154;2024-02-15T03:35:17;100708.56;;;9.45;100.00
71465;BME280;59274;49.874;9.154;2024-02-15T03:37:43;100720.50;;;9.40;100.00
71465;BME280;59274;49.874;9.154;2024-02-15T03:40:09;100715.84;;;9.41;100.00
71465;BME280;59274;49.874;9.154;2024-02-15T03:42:35;100719.41;;;9.61;100.00
71465;BME280;59274;49.874;9.154;2024-02-15T03:45:05;100709.91;;;9.51;100.00
71465;BME280;59274;49.874;9.154;2024-02-15T03:47:35;100712.63;;;9.51;100.00
71465;BME280;59274;49.874;9.154;2024-02-15T03:50:07;100716.47;;;9.50;100.00
71465;BME280;59274;49.874;9.154;2024-02-15T03:52:36;100707.34;;;9.58;100.00
71465;BME280;59274;49.874;9.154;2024-02-15T03:55:02;100713.19;;;9.60;100.00
71465;BME280;59274;49.874;9.154;2024-02-15T03:57:28;100712.69;;;9.55;100.00
71465;BME280;59274;49.874;9.154;2024-02-15T03:59:54;100717.31;;;9.54;100.00
71465;BME280;59274;49.874;9.154;2024-02-15T04:02:23;100716.88;;;9.52;100.00
71465;BME280;59274;49.874;9.154;2024-02-15T04:04:52;100714.53;;;9.51;100.00
71465;BME280;59274;49.874;9.154;2024-02-15T04:07:20;100722.13;;;9.45;100.00
71465;BME280;59274;49.874;9.154;2024-02-15T04:09:45;100714.09;;;9.49;100.00
71465;BME280;59274;49.874;9.154;2024-02-15T04:12:12;100712.06;;;9.46;100.00
71465;BME280;59274;49.874;9.154;2024-02-15T04:14:38;100716.47;;;9.50;100.00
71465;BME280;59274;49.874;9.154;2024-02-15T04:17:06;100712.06;;;9.46;100.00
71465;BME280;59274;49.874;9.154;2024-02-15T04:19:32;100714.72;;;9.42;100.00
71465;BME280;59274;49.874;9.154;2024-02-15T04:21:57;100717.88;;;9.44;100.00
71465;BME280;59274;49.874;9.154;2024-02-15T04:24:24;100706.59;;;9.42;100.00
71465;BME280;59274;49.874;9.154;2024-02-15T04:26:50;100713.59;;;9.43;100.00
71465;BME280;59274;49.874;9.154;2024-02-15T04:29:17;100713.25;;;9.45;100.00
71465;BME280;59274;49.874;9.154;2024-02-15T04:31:46;100714.09;;;9.49;100.00
71465;BME280;59274;49.874;9.154;2024-02-15T04:34:17;100712.41;;;9.60;100.00
71465;BME280;59274;49.874;9.154;2024-02-15T04:36:47;100710.47;;;9.60;100.00
71465;BME280;59274;49.874;9.154;2024-02-15T04:39:18;100712.25;;;9.53;100.00
71465;BME280;59274;49.874;9.154;2024-02-15T04:41:52;100718.81;;;9.52;100.00
71465;BME280;59274;49.874;9.154;2024-02-15T04:44:18;100711.91;;;9.54;100.00
71465;BME280;59274;49.874;9.154;2024-02-15T04:46:55;100707.19;;;9.51;100.00
71465;BME280;59274;49.874;9.154;2024-02-15T04:49:21;100717.59;;;9.49;100.00
71465;BME280;59274;49.874;9.154;2024-02-15T04:51:48;100714.44;;;9.47;100.00
71465;BME280;59274;49.874;9.154;2024-02-15T04:54:14;100721.53;;;9.52;100.00
71465;BME280;59274;49.874;9.154;2024-02-15T04:56:40;100721.44;;;9.48;100.00
71465;BME280;59274;49.874;9.154;2024-02-15T04:59:06;100719.88;;;9.47;100.00
71465;BME280;59274;49.874;9.154;2024-02-15T05:01:34;100712.88;;;9.46;100.00
71465;BME280;59274;49.874;9.154;2024-02-15T05:04:00;100716.38;;;9.47;100.00
71465;BME280;59274;49.874;9.154;2024-02-15T05:06:25;100721.78;;;9.47;100.00
71465;BME280;59274;49.874;9.154;2024-02-15T05:08:55;100715.34;;;9.35;100.00
71465;BME280;59274;49.874;9.154;2024-02-15T05:11:22;100711.66;;;9.43;100.00
71465;BME280;59274;49.874;9.154;2024-02-15T05:13:48;100706.41;;;9.51;100.00
71465;BME280;59274;49.874;9.154;2024-02-15T05:16:17;100710.88;;;9.43;100.00
71465;BME280;59274;49.874;9.154;2024-02-15T05:18:44;100711.56;;;9.40;100.00
71465;BME280;59274;49.874;9.154;2024-02-15T05:21:11;100704.81;;;9.50;100.00
71465;BME280;59274;49.874;9.154;2024-02-15T05:23:37;100706.44;;;9.35;100.00
71465;BME280;59274;49.874;9.154;2024-02-15T05:26:05;100703.03;;;9.22;100.00
71465;BME280;59274;49.874;9.154;2024-02-15T05:28:30;100706.25;;;9.28;100.00
71465;BME280;59274;49.874;9.154;2024-02-15T05:31:18;100707.41;;;9.27;100.00
71465;BME280;59274;49.874;9.154;2024-02-15T05:33:52;100704.97;;;9.22;100.00
71465;BME280;59274;49.874;9.154;2024-02-15T05:36:20;100694.47;;;9.20;100.00
71465;BME280;59274;49.874;9.154;2024-02-15T05:38:50;100711.06;;;9.19;100.00
71465;BME280;59274;49.874;9.154;2024-02-15T05:41:18;100697.63;;;9.22;100.00
71465;BME280;59274;49.874;9.154;2024-02-15T05:43:46;100700.94;;;9.16;100.00
71465;BME280;59274;49.874;9.154;2024-02-15T05:46:14;100697.00;;;9.13;100.00
71465;BME280;59274;49.874;9.154;2024-02-15T05:48:40;100694.03;;;9.02;100.00
71465;BME280;59274;49.874;9.154;2024-02-15T05:51:07;100699.47;;;8.87;100.00
71465;BME280;59274;49.874;9.154;2024-02-15T05:53:33;100688.03;;;8.93;100.00
71465;BME280;59274;49.874;9.154;2024-02-15T05:56:03;100692.81;;;9.00;100.00
71465;BME280;59274;49.874;9.154;2024-02-15T05:58:32;100698.50;;;8.95;100.00
71465;BME280;59274;49.874;9.154;2024-02-15T06:01:01;100698.69;;;9.02;100.00
71465;BME280;59274;49.874;9.154;2024-02-15T06:03:31;100696.03;;;9.06;100.00
71465;BME280;59274;49.874;9.154;2024-02-15T06:05:58;100688.72;;;9.06;100.00
71465;BME280;59274;49.874;9.154;2024-02-15T06:08:28;100700.69;;;9.05;100.00
71465;BME280;59274;49.874;9.154;2024-02-15T06:10:57;100694.91;;;9.07;100.00
71465;BME280;59274;49.874;9.154;2024-02-15T06:13:23;100688.59;;;9.02;100.00
71465;BME280;59274;49.874;9.154;2024-02-15T06:15:49;100690.28;;;9.07;100.00
71465;BME280;59274;49.874;9.154;2024-02-15T06:18:28;100694.19;;;9.10;100.00
71465;BME280;59274;49.874;9.154;2024-02-15T06:20:55;100688.44;;;9.11;100.00
71465;BME280;59274;49.874;9.154;2024-02-15T06:23:31;100688.09;;;9.13;100.00
71465;BME280;59274;49.874;9.154;2024-02-15T06:25:58;100686.50;;;9.12;100.00
71465;BME280;59274;49.874;9.154;2024-02-15T06:28:26;100692.44;;;9.17;100.00
71465;BME280;59274;49.874;9.154;2024-02-15T06:31:11;100692.19;;;9.07;100.00
71465;BME280;59274;49.874;9.154;2024-02-15T06:33:56;100693.50;;;9.13;100.00
71465;BME280;59274;49.874;9.154;2024-02-15T06:36:47;100693.06;;;9.11;100.00
71465;BME280;59274;49.874;9.154;2024-02-15T06:39:32;100700.41;;;9.10;100.00
71465;BME280;59274;49.874;9.154;2024-02-15T06:42:09;100697.44;;;9.15;100.00
71465;BME280;59274;49.874;9.154;2024-02-15T06:44:36;100698.66;;;9.18;100.00
71465;BME280;59274;49.874;9.154;2024-02-15T06:47:04;100698.31;;;9.19;100.00
71465;BME280;59274;49.874;9.154;2024-02-15T06:49:29;100689.03;;;9.20;100.00
71465;BME280;59274;49.874;9.154;2024-02-15T06:51:55;100687.91;;;9.21;100.00
71465;BME280;59274;49.874;9.154;2024-02-15T06:54:20;100691.41;;;9.22;100.00
71465;BME280;59274;49.874;9.154;2024-02-15T06:56:46;100694.28;;;9.29;100.00
71465;BME280;59274;49.874;9.154;2024-02-15T06:59:14;100699.09;;;9.35;100.00
71465;BME280;59274;49.874;9.154;2024-02-15T07:01:43;100692.94;;;9.38;100.00
71465;BME280;59274;49.874;9.154;2024-02-15T07:04:09;100698.38;;;9.38;100.00
71465;BME280;59274;49.874;9.154;2024-02-15T07:06:38;100690.22;;;9.38;100.00
71465;BME280;59274;49.874;9.154;2024-02-15T07:09:06;100693.63;;;9.51;100.00
71465;BME280;59274;49.874;9.154;2024-02-15T07:11:33;100680.88;;;9.52;100.00
71465;BME280;59274;49.874;9.154;2024-02-15T07:14:02;100690.28;;;9.58;100.00
71465;BME280;59274;49.874;9.154;2024-02-15T07:16:27;100684.66;;;9.66;100.00
71465;BME280;59274;49.874;9.154;2024-02-15T07:18:53;100687.66;;;9.61;100.00
71465;BME280;59274;49.874;9.154;2024-02-15T07:21:21;100695.44;;;9.63;100.00
71465;BME280;59274;49.874;9.154;2024-02-15T07:23:52;100690.22;;;9.73;100.00
71465;BME280;59274;49.874;9.154;2024-02-15T07:26:20;100694.25;;;9.79;100.00
71465;BME280;59274;49.874;9.154;2024-02-15T07:28:48;100688.25;;;9.90;100.00
71465;BME280;59274;49.874;9.154;2024-02-15T07:31:15;100688.91;;;10.02;100.00
71465;BME280;59274;49.874;9.154;2024-02-15T07:33:41;100690.13;;;10.05;100.00
71465;BME280;59274;49.874;9.154;2024-02-15T07:36:08;100679.75;;;10.10;100.00
71465;BME280;59274;49.874;9.154;2024-02-15T07:38:34;100688.19;;;10.05;100.00
71465;BME280;59274;49.874;9.154;2024-02-15T07:41:00;100679.97;;;10.02;100.00
71465;BME280;59274;49.874;9.154;2024-02-15T07:43:25;100685.19;;;10.10;100.00
71465;BME280;59274;49.874;9.154;2024-02-15T07:45:51;100678.56;;;10.08;100.00
71465;BME280;59274;49.874;9.154;2024-02-15T07:48:17;100681.34;;;10.11;100.00
71465;BME280;59274;49.874;9.154;2024-02-15T07:50:43;100686.16;;;10.18;100.00
71465;BME280;59274;49.874;9.154;2024-02-15T07:53:10;100687.56;;;10.12;100.00
71465;BME280;59274;49.874;9.154;2024-02-15T07:55:37;100686.28;;;10.06;100.00
71465;BME280;59274;49.874;9.154;2024-02-15T07:58:03;100689.41;;;10.08;100.00
71465;BME280;59274;49.874;9.154;2024-02-15T08:00:30;100695.69;;;10.12;100.00
71465;BME280;59274;49.874;9.154;2024-02-15T08:02:56;100688.50;;;10.19;100.00
71465;BME280;59274;49.874;9.154;2024-02-15T08:05:23;100694.13;;;10.30;100.00
71465;BME280;59274;49.874;9.154;2024-02-15T08:07:48;100691.16;;;10.35;100.00
71465;BME280;59274;49.874;9.154;2024-02-15T08:10:14;100693.34;;;10.49;100.00
71465;BME280;59274;49.874;9.154;2024-02-15T08:12:41;100691.75;;;10.48;100.00
71465;BME280;59274;49.874;9.154;2024-02-15T08:15:08;100690.31;;;10.54;100.00
71465;BME280;59274;49.874;9.154;2024-02-15T08:17:44;100680.13;;;10.47;100.00
71465;BME280;59274;49.874;9.154;2024-02-15T08:20:14;100681.88;;;10.59;100.00
71465;BME280;59274;49.874;9.154;2024-02-15T08:22:40;100687.38;;;10.63;100.00
71465;BME280;59274;49.874;9.154;2024-02-15T08:25:11;100685.88;;;10.65;100.00
71465;BME280;59274;49.874;9.154;2024-02-15T08:27:41;100684.47;;;10.75;100.00
71465;BME280;59274;49.874;9.154;2024-02-15T08:30:09;100688.06;;;10.79;100.00
71465;BME280;59274;49.874;9.154;2024-02-15T08:32:40;100683.81;;;10.81;100.00
71465;BME280;59274;49.874;9.154;2024-02-15T08:35:08;100685.03;;;10.84;100.00
71465;BME280;59274;49.874;9.154;2024-02-15T08:37:35;100682.34;;;10.87;100.00
71465;BME280;59274;49.874;9.154;2024-02-15T08:40:03;100673.50;;;10.90;100.00
71465;BME280;59274;49.874;9.154;2024-02-15T08:42:28;100674.88;;;11.04;100.00
71465;BME280;59274;49.874;9.154;2024-02-15T08:44:53;100678.31;;;11.01;100.00
71465;BME280;59274;49.874;9.154;2024-02-15T08:47:19;100668.75;;;11.10;100.00
71465;BME280;59274;49.874;9.154;2024-02-15T08:49:44;100670.44;;;11.18;100.00
71465;BME280;59274;49.874;9.154;2024-02-15T08:52:10;100666.56;;;11.19;100.00
71465;BME280;59274;49.874;9.154;2024-02-15T08:54:35;100664.69;;;11.23;100.00
71465;BME280;59274;49.874;9.154;2024-02-15T08:57:04;100671.13;;;11.38;100.00
71465;BME280;59274;49.874;9.154;2024-02-15T08:59:30;100674.59;;;11.35;100.00
71465;BME280;59274;49.874;9.154;2024-02-15T09:01:56;100675.47;;;11.43;100.00
71465;BME280;59274;49.874;9.154;2024-02-15T09:04:22;100681.69;;;11.43;100.00
71465;BME280;59274;49.874;9.154;2024-02-15T09:06:50;100682.63;;;11.54;100.00
71465;BME280;59274;49.874;9.154;2024-02-15T09:09:16;100679.63;;;11.63;100.00
71465;BME280;59274;49.874;9.154;2024-02-15T09:11:42;100670.03;;;11.72;100.00
71465;BME280;59274;49.874;9.154;2024-02-15T09:14:07;100668.06;;;11.69;100.00
71465;BME280;59274;49.874;9.154;2024-02-15T09:16:38;100669.00;;;11.81;100.00
71465;BME280;59274;49.874;9.154;2024-02-15T09:19:05;100673.44;;;11.92;100.00
71465;BME280;59274;49.874;9.154;2024-02-15T09:21:31;100668.03;;;11.96;100.00
71465;BME280;59274;49.874;9.154;2024-02-15T09:23:59;100670.81;;;11.99;100.00
71465;BME280;59274;49.874;9.154;2024-02-15T09:26:25;100675.84;;;11.97;100.00
71465;BME280;59274;49.874;9.154;2024-02-15T09:28:52;100668.97;;;12.10;100.00
71465;BME280;59274;49.874;9.154;2024-02-15T09:31:19;100666.22;;;12.07;100.00
71465;BME280;59274;49.874;9.154;2024-02-15T09:33:44;100663.16;;;12.12;100.00
71465;BME280;59274;49.874;9.154;2024-02-15T09:36:11;100667.91;;;12.19;100.00
71465;BME280;59274;49.874;9.154;2024-02-15T09:38:37;100666.41;;;12.25;100.00
71465;BME280;59274;49.874;9.154;2024-02-15T09:41:03;100659.47;;;12.31;100.00
71465;BME280;59274;49.874;9.154;2024-02-15T09:43:32;100661.41;;;12.30;100.00
71465;BME280;59274;49.874;9.154;2024-02-15T09:45:58;100663.50;;;12.44;100.00
71465;BME280;59274;49.874;9.154;2024-02-15T09:48:25;100653.16;;;12.60;100.00
71465;BME280;59274;49.874;9.154;2024-02-15T09:50:52;100651.59;;;12.59;100.00
71465;BME280;59274;49.874;9.154;2024-02-15T09:53:23;100652.09;;;12.72;100.00
71465;BME280;59274;49.874;9.154;2024-02-15T09:55:55;100651.31;;;12.71;100.00
71465;BME280;59274;49.874;9.154;2024-02-15T09:58:29;100644.81;;;12.83;100.00
71465;BME280;59274;49.874;9.154;2024-02-15T10:00:56;100652.25;;;12.93;100.00
71465;BME280;59274;49.874;9.154;2024-02-15T10:03:23;100647.94;;;12.88;100.00
71465;BME280;59274;49.874;9.154;2024-02-15T10:05:50;100647.28;;;13.02;100.00
71465;BME280;59274;49.874;9.154;2024-02-15T10:08:16;100640.31;;;13.08;100.00
71465;BME280;59274;49.874;9.154;2024-02-15T10:10:43;100642.28;;;13.11;100.00
71465;BME280;59274;49.874;9.154;2024-02-15T10:13:13;100638.53;;;13.26;100.00
71465;BME280;59274;49.874;9.154;2024-02-15T10:15:39;100643.22;;;13.29;100.00
71465;BME280;59274;49.874;9.154;2024-02-15T10:18:09;100647.47;;;13.23;100.00
71465;BME280;59274;49.874;9.154;2024-02-15T10:20:40;100649.47;;;13.33;100.00
71465;BME280;59274;49.874;9.154;2024-02-15T10:23:14;100643.72;;;13.49;100.00
71465;BME280;59274;49.874;9.154;2024-02-15T10:25:43;100642.63;;;13.64;100.00
71465;BME280;59274;49.874;9.154;2024-02-15T10:28:11;100645.78;;;13.73;100.00
71465;BME280;59274;49.874;9.154;2024-02-15T10:30:38;100641.97;;;13.85;100.00
71465;BME280;59274;49.874;9.154;2024-02-15T10:33:04;100636.09;;;13.87;100.00
71465;BME280;59274;49.874;9.154;2024-02-15T10:35:31;100635.25;;;13.72;100.00
71465;BME280;59274;49.874;9.154;2024-02-15T10:38:10;100625.56;;;13.89;100.00
71465;BME280;59274;49.874;9.154;2024-02-15T10:40:37;100631.00;;;13.82;100.00
71465;BME280;59274;49.874;9.154;2024-02-15T10:43:03;100627.53;;;13.88;100.00
71465;BME280;59274;49.874;9.154;2024-02-15T10:45:34;100631.75;;;13.79;100.00
71465;BME280;59274;49.874;9.154;2024-02-15T10:48:01;100629.44;;;13.81;100.00
71465;BME280;59274;49.874;9.154;2024-02-15T10:50:30;100620.91;;;13.96;100.00
71465;BME280;59274;49.874;9.154;2024-02-15T10:52:57;100616.25;;;14.00;100.00
71465;BME280;59274;49.874;9.154;2024-02-15T10:58:01;100616.28;;;14.11;100.00
71465;BME280;59274;49.874;9.154;2024-02-15T11:00:32;100615.50;;;14.21;100.00
71465;BME280;59274;49.874;9.154;2024-02-15T11:03:03;100609.69;;;14.33;100.00
71465;BME280;59274;49.874;9.154;2024-02-15T11:05:35;100610.91;;;14.43;100.00
71465;BME280;59274;49.874;9.154;2024-02-15T11:08:07;100606.22;;;14.47;100.00
71465;BME280;59274;49.874;9.154;2024-02-15T11:10:37;100598.03;;;14.61;100.00
71465;BME280;59274;49.874;9.154;2024-02-15T11:13:09;100595.28;;;14.65;100.00
71465;BME280;59274;49.874;9.154;2024-02-15T11:18:01;100588.22;;;14.92;100.00
71465;BME280;59274;49.874;9.154;2024-02-15T11:23:02;100586.63;;;15.23;100.00
71465;BME280;59274;49.874;9.154;2024-02-15T11:25:37;100579.16;;;15.38;100.00
71465;BME280;59274;49.874;9.154;2024-02-15T11:30:51;100569.34;;;15.61;100.00
71465;BME280;59274;49.874;9.154;2024-02-15T11:33:36;100573.19;;;15.71;100.00
71465;BME280;59274;49.874;9.154;2024-02-15T11:36:08;100569.22;;;15.83;100.00
71465;BME280;59274;49.874;9.154;2024-02-15T11:38:35;100560.53;;;15.98;100.00
71465;BME280;59274;49.874;9.154;2024-02-15T11:41:05;100556.88;;;16.16;100.00
71465;BME280;59274;49.874;9.154;2024-02-15T11:46:17;100550.63;;;16.19;100.00
71465;BME280;59274;49.874;9.154;2024-02-15T11:48:44;100550.56;;;16.26;100.00
71465;BME280;59274;49.874;9.154;2024-02-15T11:51:27;100550.91;;;16.31;100.00
71465;BME280;59274;49.874;9.154;2024-02-15T11:54:20;100552.56;;;16.18;100.00
71465;BME280;59274;49.874;9.154;2024-02-15T11:56:50;100546.25;;;16.25;100.00
71465;BME280;59274;49.874;9.154;2024-02-15T11:59:41;100548.66;;;16.16;100.00
71465;BME280;59274;49.874;9.154;2024-02-15T12:02:39;100536.47;;;16.24;100.00
71465;BME280;59274;49.874;9.154;2024-02-15T12:05:23;100535.41;;;16.07;100.00
71465;BME280;59274;49.874;9.154;2024-02-15T12:08:07;100537.66;;;16.23;100.00
71465;BME280;59274;49.874;9.154;2024-02-15T12:10:59;100535.78;;;16.13;100.00
71465;BME280;59274;49.874;9.154;2024-02-15T12:13:43;100530.59;;;16.25;100.00
71465;BME280;59274;49.874;9.154;2024-02-15T12:16:26;100527.34;;;16.41;100.00
71465;BME280;59274;49.874;9.154;2024-02-15T12:19:10;100528.97;;;16.31;100.00
71465;BME280;59274;49.874;9.154;2024-02-15T12:21:37;100523.75;;;16.48;100.00
71465;BME280;59274;49.874;9.154;2024-02-15T12:24:07;100526.13;;;16.45;100.00
71465;BME280;59274;49.874;9.154;2024-02-15T12:26:32;100520.25;;;16.43;100.00
71465;BME280;59274;49.874;9.154;2024-02-15T12:29:00;100522.72;;;16.31;100.00
71465;BME280;59274;49.874;9.154;2024-02-15T12:31:27;100515.66;;;16.33;100.00
71465;BME280;59274;49.874;9.154;2024-02-15T12:34:03;100517.38;;;16.58;100.00
71465;BME280;59274;49.874;9.154;2024-02-15T12:36:33;100502.44;;;16.69;100.00
71465;BME280;59274;49.874;9.154;2024-02-15T12:39:00;100505.56;;;16.68;100.00
71465;BME280;59274;49.874;9.154;2024-02-15T12:41:26;100499.94;;;16.82;100.00
71465;BME280;59274;49.874;9.154;2024-02-15T12:43:54;100509.66;;;16.90;100.00
71465;BME280;59274;49.874;9.154;2024-02-15T12:46:22;100498.25;;;16.92;100.00
71465;BME280;59274;49.874;9.154;2024-02-15T12:48:47;100489.53;;;17.04;100.00
71465;BME280;59274;49.874;9.154;2024-02-15T12:51:14;100484.25;;;17.16;100.00
71465;BME280;59274;49.874;9.154;2024-02-15T12:53:41;100481.13;;;17.18;100.00
71465;BME280;59274;49.874;9.154;2024-02-15T12:56:09;100471.22;;;17.24;100.00
71465;BME280;59274;49.874;9.154;2024-02-15T12:58:35;100468.16;;;17.18;100.00
71465;BME280;59274;49.874;9.154;2024-02-15T13:01:01;100471.88;;;17.05;100.00
71465;BME280;59274;49.874;9.154;2024-02-15T13:03:27;100466.72;;;17.07;100.00
71465;BME280;59274;49.874;9.154;2024-02-15T13:05:53;100462.16;;;16.97;100.00